Acton, Montana
Current Conditions -  °F | °C
As of 3:53 AM on Sunday 26 Oct 2014 (Local Time) from KBIL Reporting Station
Light Rain Light Rain  
Wind Chill: 64°   Ceiling: 7000
Heat Index: 64°   Visibility: 10mi
Dew Point: 36°   Wind: 30mph
Humidity: 35%   Direction: 270°W
Pressure: 29.66"   Gusts: 41mph
Location:  45.93°N, 108.69°W
Report Text: KBIL 260953Z 27026G36KT 10SM -RA FEW055 BKN070 OVC100 18/02 A2966 RMK AO2 PK WND 27043/0924 RAB38 SLP019 P0000 T01780022
Loading
Personal Weather Stations






























Interactive Weather Map
Tropical Storm Tracking
New forecast layout! Learn more

10-Day Weather Forecast

Advertisements
Track Severe Weather on mobile